sensor_id;sensor_type;location;lat;lon;timestamp;pressure;altitude;pressure_sealevel;temperature;humidity
56568;BME280;42456;49.956;20.004;2023-04-30T00:11:52;98148.79;;;11.62;84.13
56568;BME280;42456;49.956;20.004;2023-04-30T00:14:22;98147.71;;;11.62;84.09
56568;BME280;42456;49.956;20.004;2023-04-30T00:16:49;98147.36;;;11.61;84.16
56568;BME280;42456;49.956;20.004;2023-04-30T00:19:17;98146.22;;;11.62;83.98
56568;BME280;42456;49.956;20.004;2023-04-30T00:21:44;98144.70;;;11.62;84.07
56568;BME280;42456;49.956;20.004;2023-04-30T00:24:11;98146.57;;;11.61;83.98
56568;BME280;42456;49.956;20.004;2023-04-30T00:26:39;98146.42;;;11.59;84.15
56568;BME280;42456;49.956;20.004;2023-04-30T00:29:12;98151.02;;;11.58;84.20
56568;BME280;42456;49.956;20.004;2023-04-30T00:48:56;98160.48;;;11.57;84.69
56568;BME280;42456;49.956;20.004;2023-04-30T00:51:31;98161.83;;;11.56;84.75
56568;BME280;42456;49.956;20.004;2023-04-30T00:54:02;98165.60;;;11.57;84.84
56568;BME280;42456;49.956;20.004;2023-04-30T00:59:33;98169.44;;;11.56;84.85
56568;BME280;42456;49.956;20.004;2023-04-30T01:02:01;98167.81;;;11.56;84.93
56568;BME280;42456;49.956;20.004;2023-04-30T01:04:51;98165.23;;;11.55;85.03
56568;BME280;42456;49.956;20.004;2023-04-30T01:07:18;98166.33;;;11.55;85.02
56568;BME280;42456;49.956;20.004;2023-04-30T01:09:45;98167.11;;;11.56;84.92
56568;BME280;42456;49.956;20.004;2023-04-30T01:12:20;98168.16;;;11.55;85.10
56568;BME280;42456;49.956;20.004;2023-04-30T01:15:35;98167.73;;;11.54;84.94
56568;BME280;42456;49.956;20.004;2023-04-30T01:20:34;98167.58;;;11.51;85.21
56568;BME280;42456;49.956;20.004;2023-04-30T01:26:14;98169.73;;;11.48;85.20
56568;BME280;42456;49.956;20.004;2023-04-30T01:28:42;98171.27;;;11.48;85.24
56568;BME280;42456;49.956;20.004;2023-04-30T01:31:19;98172.27;;;11.46;85.24
56568;BME280;42456;49.956;20.004;2023-04-30T01:33:47;98175.45;;;11.47;85.39
56568;BME280;42456;49.956;20.004;2023-04-30T01:39:05;98175.54;;;11.45;85.28
56568;BME280;42456;49.956;20.004;2023-04-30T01:42:32;98176.61;;;11.44;85.29
56568;BME280;42456;49.956;20.004;2023-04-30T01:44:48;98177.70;;;11.42;85.38
56568;BME280;42456;49.956;20.004;2023-04-30T01:53:01;98181.59;;;11.37;85.32
56568;BME280;42456;49.956;20.004;2023-04-30T01:58:19;98181.02;;;11.36;85.45
56568;BME280;42456;49.956;20.004;2023-04-30T02:00:48;98185.52;;;11.35;85.50
56568;BME280;42456;49.956;20.004;2023-04-30T02:03:15;98187.65;;;11.34;85.47
56568;BME280;42456;49.956;20.004;2023-04-30T02:05:42;98187.88;;;11.34;85.47
56568;BME280;42456;49.956;20.004;2023-04-30T02:08:09;98184.36;;;11.34;85.60
56568;BME280;42456;49.956;20.004;2023-04-30T02:10:36;98185.81;;;11.34;85.51
56568;BME280;42456;49.956;20.004;2023-04-30T02:13:03;98191.94;;;11.33;85.66
56568;BME280;42456;49.956;20.004;2023-04-30T02:15:30;98188.21;;;11.32;85.70
56568;BME280;42456;49.956;20.004;2023-04-30T02:17:58;98185.83;;;11.30;85.70
56568;BME280;42456;49.956;20.004;2023-04-30T02:20:44;98187.97;;;11.29;85.68
56568;BME280;42456;49.956;20.004;2023-04-30T02:23:46;98186.91;;;11.28;85.81
56568;BME280;42456;49.956;20.004;2023-04-30T02:26:17;98184.98;;;11.27;85.90
56568;BME280;42456;49.956;20.004;2023-04-30T02:29:44;98187.21;;;11.26;85.91
56568;BME280;42456;49.956;20.004;2023-04-30T02:33:02;98191.88;;;11.25;86.02
56568;BME280;42456;49.956;20.004;2023-04-30T02:35:32;98191.54;;;11.23;85.99
56568;BME280;42456;49.956;20.004;2023-04-30T02:37:59;98193.97;;;11.23;86.10
56568;BME280;42456;49.956;20.004;2023-04-30T02:40:26;98195.98;;;11.23;86.05
56568;BME280;42456;49.956;20.004;2023-04-30T02:42:54;98200.34;;;11.22;85.93
56568;BME280;42456;49.956;20.004;2023-04-30T02:45:42;98198.02;;;11.22;85.94
56568;BME280;42456;49.956;20.004;2023-04-30T02:49:30;98201.68;;;11.21;86.06
56568;BME280;42456;49.956;20.004;2023-04-30T02:52:57;98200.55;;;11.20;86.04
56568;BME280;42456;49.956;20.004;2023-04-30T02:55:25;98205.73;;;11.18;86.15
56568;BME280;42456;49.956;20.004;2023-04-30T02:58:27;98206.08;;;11.17;86.04
56568;BME280;42456;49.956;20.004;2023-04-30T03:01:10;98206.33;;;11.15;86.09
56568;BME280;42456;49.956;20.004;2023-04-30T03:04:23;98207.16;;;11.15;86.06
56568;BME280;42456;49.956;20.004;2023-04-30T03:07:50;98213.12;;;11.11;85.95
56568;BME280;42456;49.956;20.004;2023-04-30T03:10:37;98217.77;;;11.10;85.96
56568;BME280;42456;49.956;20.004;2023-04-30T03:13:46;98219.05;;;11.09;86.16
56568;BME280;42456;49.956;20.004;2023-04-30T03:16:49;98223.00;;;11.08;86.07
56568;BME280;42456;49.956;20.004;2023-04-30T03:28:36;98225.04;;;11.05;86.20
56568;BME280;42456;49.956;20.004;2023-04-30T03:31:58;98231.21;;;11.05;86.15
56568;BME280;42456;49.956;20.004;2023-04-30T03:34:34;98228.80;;;11.02;86.22
56568;BME280;42456;49.956;20.004;2023-04-30T03:37:27;98230.01;;;11.02;86.27
56568;BME280;42456;49.956;20.004;2023-04-30T03:39:55;98231.14;;;11.01;86.12
56568;BME280;42456;49.956;20.004;2023-04-30T03:42:29;98231.31;;;11.01;86.19
56568;BME280;42456;49.956;20.004;2023-04-30T03:47:58;98239.15;;;10.99;86.37
56568;BME280;42456;49.956;20.004;2023-04-30T03:51:06;98244.59;;;10.99;86.34
56568;BME280;42456;49.956;20.004;2023-04-30T03:54:00;98247.41;;;10.98;86.30
56568;BME280;42456;49.956;20.004;2023-04-30T04:00:47;98258.02;;;10.96;86.39
56568;BME280;42456;49.956;20.004;2023-04-30T04:03:34;98258.17;;;10.96;86.46
56568;BME280;42456;49.956;20.004;2023-04-30T04:06:41;98258.80;;;10.96;86.45
56568;BME280;42456;49.956;20.004;2023-04-30T04:09:29;98262.57;;;10.96;86.43
56568;BME280;42456;49.956;20.004;2023-04-30T04:12:16;98272.97;;;10.97;86.37
56568;BME280;42456;49.956;20.004;2023-04-30T04:14:43;98275.89;;;10.97;86.35
56568;BME280;42456;49.956;20.004;2023-04-30T04:17:11;98278.77;;;10.98;86.47
56568;BME280;42456;49.956;20.004;2023-04-30T04:19:38;98283.19;;;10.99;86.37
56568;BME280;42456;49.956;20.004;2023-04-30T04:22:05;98285.81;;;10.99;86.49
56568;BME280;42456;49.956;20.004;2023-04-30T04:24:48;98288.29;;;11.00;86.49
56568;BME280;42456;49.956;20.004;2023-04-30T04:27:16;98286.71;;;11.01;86.49
56568;BME280;42456;49.956;20.004;2023-04-30T04:29:43;98287.68;;;11.02;86.43
56568;BME280;42456;49.956;20.004;2023-04-30T04:32:11;98293.73;;;11.03;86.37
56568;BME280;42456;49.956;20.004;2023-04-30T04:35:05;98291.27;;;11.04;86.39
56568;BME280;42456;49.956;20.004;2023-04-30T04:37:33;98295.14;;;11.04;86.42
56568;BME280;42456;49.956;20.004;2023-04-30T04:40:00;98298.05;;;11.04;86.42
56568;BME280;42456;49.956;20.004;2023-04-30T04:42:27;98301.66;;;11.04;86.28
56568;BME280;42456;49.956;20.004;2023-04-30T04:44:54;98302.64;;;11.03;86.28
56568;BME280;42456;49.956;20.004;2023-04-30T04:47:41;98305.43;;;11.04;86.37
56568;BME280;42456;49.956;20.004;2023-04-30T04:51:09;98311.77;;;11.03;86.10
56568;BME280;42456;49.956;20.004;2023-04-30T04:59:28;98322.13;;;10.98;86.35
56568;BME280;42456;49.956;20.004;2023-04-30T05:01:55;98318.92;;;10.96;86.33
56568;BME280;42456;49.956;20.004;2023-04-30T05:04:22;98328.30;;;10.96;86.31
56568;BME280;42456;49.956;20.004;2023-04-30T05:06:50;98330.81;;;10.94;86.47
56568;BME280;42456;49.956;20.004;2023-04-30T05:09:37;98337.82;;;10.94;86.49
56568;BME280;42456;49.956;20.004;2023-04-30T05:12:25;98344.00;;;10.88;86.32
56568;BME280;42456;49.956;20.004;2023-04-30T05:15:17;98350.74;;;10.84;86.25
56568;BME280;42456;49.956;20.004;2023-04-30T05:18:20;98356.11;;;10.77;85.98
56568;BME280;42456;49.956;20.004;2023-04-30T05:22:06;98363.46;;;10.75;85.82
56568;BME280;42456;49.956;20.004;2023-04-30T05:24:40;98370.72;;;10.74;85.80
56568;BME280;42456;49.956;20.004;2023-04-30T05:27:07;98372.48;;;10.74;85.69
56568;BME280;42456;49.956;20.004;2023-04-30T05:29:35;98377.31;;;10.75;85.62
56568;BME280;42456;49.956;20.004;2023-04-30T05:32:02;98380.52;;;10.76;85.64
56568;BME280;42456;49.956;20.004;2023-04-30T05:34:29;98385.08;;;10.77;85.55
56568;BME280;42456;49.956;20.004;2023-04-30T05:37:02;98395.08;;;10.77;85.28
56568;BME280;42456;49.956;20.004;2023-04-30T05:48:55;98413.02;;;10.63;84.48
56568;BME280;42456;49.956;20.004;2023-04-30T05:51:42;98421.66;;;10.58;84.22
56568;BME280;42456;49.956;20.004;2023-04-30T05:54:30;98424.27;;;10.56;84.31
56568;BME280;42456;49.956;20.004;2023-04-30T06:00:24;98431.88;;;10.48;83.97
56568;BME280;42456;49.956;20.004;2023-04-30T06:02:52;98433.56;;;10.44;83.88
56568;BME280;42456;49.956;20.004;2023-04-30T06:05:59;98442.94;;;10.42;83.78
56568;BME280;42456;49.956;20.004;2023-04-30T06:09:00;98447.66;;;10.39;83.70
56568;BME280;42456;49.956;20.004;2023-04-30T06:11:29;98448.95;;;10.33;83.05
56568;BME280;42456;49.956;20.004;2023-04-30T06:13:57;98451.66;;;10.28;82.79
56568;BME280;42456;49.956;20.004;2023-04-30T06:16:59;98458.42;;;10.23;82.47
56568;BME280;42456;49.956;20.004;2023-04-30T06:20:01;98463.45;;;10.13;81.89
56568;BME280;42456;49.956;20.004;2023-04-30T06:22:56;98465.38;;;10.06;81.91
56568;BME280;42456;49.956;20.004;2023-04-30T06:27:21;98470.52;;;10.05;82.19
56568;BME280;42456;49.956;20.004;2023-04-30T06:34:11;98484.46;;;9.99;81.91
56568;BME280;42456;49.956;20.004;2023-04-30T06:37:12;98483.31;;;9.97;81.82
56568;BME280;42456;49.956;20.004;2023-04-30T06:49:47;98508.61;;;9.94;80.75
56568;BME280;42456;49.956;20.004;2023-04-30T06:52:45;98512.38;;;9.95;80.48
56568;BME280;42456;49.956;20.004;2023-04-30T06:55:15;98515.65;;;9.95;80.21
56568;BME280;42456;49.956;20.004;2023-04-30T06:57:45;98520.67;;;9.96;80.05
56568;BME280;42456;49.956;20.004;2023-04-30T07:35:51;98553.38;;;10.84;78.55
56568;BME280;42456;49.956;20.004;2023-04-30T07:39:13;98554.05;;;11.01;78.44
56568;BME280;42456;49.956;20.004;2023-04-30T07:41:51;98557.93;;;11.11;78.20
56568;BME280;42456;49.956;20.004;2023-04-30T07:44:26;98558.74;;;11.20;78.10
56568;BME280;42456;49.956;20.004;2023-04-30T07:53:01;98570.66;;;11.45;77.70
56568;BME280;42456;49.956;20.004;2023-04-30T07:56:28;98572.64;;;11.53;77.52
56568;BME280;42456;49.956;20.004;2023-04-30T08:01:35;98575.27;;;11.72;77.02
56568;BME280;42456;49.956;20.004;2023-04-30T08:04:26;98578.04;;;11.87;77.12
56568;BME280;42456;49.956;20.004;2023-04-30T08:06:57;98573.95;;;11.99;76.69
56568;BME280;42456;49.956;20.004;2023-04-30T08:09:24;98573.60;;;12.13;76.47
56568;BME280;42456;49.956;20.004;2023-04-30T08:11:58;98575.88;;;12.27;75.80
56568;BME280;42456;49.956;20.004;2023-04-30T08:14:25;98579.80;;;12.42;75.72
56568;BME280;42456;49.956;20.004;2023-04-30T08:16:53;98580.65;;;12.60;75.51
56568;BME280;42456;49.956;20.004;2023-04-30T08:19:20;98584.80;;;12.75;75.04
56568;BME280;42456;49.956;20.004;2023-04-30T08:21:48;98587.55;;;12.88;74.68
56568;BME280;42456;49.956;20.004;2023-04-30T08:24:15;98587.23;;;13.01;74.31
56568;BME280;42456;49.956;20.004;2023-04-30T08:26:48;98584.40;;;13.10;73.76
56568;BME280;42456;49.956;20.004;2023-04-30T08:29:17;98587.77;;;13.25;73.78
56568;BME280;42456;49.956;20.004;2023-04-30T08:31:44;98584.31;;;13.40;73.44
56568;BME280;42456;49.956;20.004;2023-04-30T08:34:12;98582.42;;;13.56;73.27
56568;BME280;42456;49.956;20.004;2023-04-30T08:36:39;98583.14;;;13.75;73.07
56568;BME280;42456;49.956;20.004;2023-04-30T08:39:06;98584.81;;;13.90;72.49
56568;BME280;42456;49.956;20.004;2023-04-30T08:41:35;98588.09;;;14.01;72.14
56568;BME280;42456;49.956;20.004;2023-04-30T08:44:02;98585.77;;;14.12;71.80
56568;BME280;42456;49.956;20.004;2023-04-30T08:46:33;98583.13;;;14.24;71.32
56568;BME280;42456;49.956;20.004;2023-04-30T08:49:02;98578.83;;;14.36;70.79
56568;BME280;42456;49.956;20.004;2023-04-30T08:51:30;98583.72;;;14.48;70.60
56568;BME280;42456;49.956;20.004;2023-04-30T08:53:59;98577.95;;;14.61;69.97
56568;BME280;42456;49.956;20.004;2023-04-30T08:56:26;98580.19;;;14.76;69.25
56568;BME280;42456;49.956;20.004;2023-04-30T08:58:55;98578.92;;;14.86;69.02
56568;BME280;42456;49.956;20.004;2023-04-30T09:01:22;98579.90;;;14.95;68.39
56568;BME280;42456;49.956;20.004;2023-04-30T09:03:51;98583.19;;;14.96;67.40
56568;BME280;42456;49.956;20.004;2023-04-30T09:06:18;98585.46;;;14.97;67.06
56568;BME280;42456;49.956;20.004;2023-04-30T09:08:49;98591.33;;;15.00;66.42
56568;BME280;42456;49.956;20.004;2023-04-30T09:11:23;98586.42;;;15.05;65.73
56568;BME280;42456;49.956;20.004;2023-04-30T09:13:53;98590.48;;;15.19;65.56
56568;BME280;42456;49.956;20.004;2023-04-30T09:16:20;98591.92;;;15.34;64.99
56568;BME280;42456;49.956;20.004;2023-04-30T09:18:51;98592.89;;;15.38;64.16
56568;BME280;42456;49.956;20.004;2023-04-30T09:21:35;98592.06;;;15.42;63.91
56568;BME280;42456;49.956;20.004;2023-04-30T09:24:46;98594.79;;;15.49;63.95
56568;BME280;42456;49.956;20.004;2023-04-30T09:28:54;98592.30;;;15.62;63.90
56568;BME280;42456;49.956;20.004;2023-04-30T09:31:34;98590.41;;;15.78;63.10
56568;BME280;42456;49.956;20.004;2023-04-30T09:34:05;98592.34;;;15.88;62.87
56568;BME280;42456;49.956;20.004;2023-04-30T09:36:33;98590.27;;;15.93;62.32
56568;BME280;42456;49.956;20.004;2023-04-30T09:39:10;98589.88;;;15.96;61.34
56568;BME280;42456;49.956;20.004;2023-04-30T09:41:46;98594.11;;;16.03;60.80
56568;BME280;42456;49.956;20.004;2023-04-30T09:44:30;98596.06;;;16.03;60.76
56568;BME280;42456;49.956;20.004;2023-04-30T09:46:58;98595.34;;;16.03;60.07
56568;BME280;42456;49.956;20.004;2023-04-30T09:49:49;98592.31;;;16.02;59.71
56568;BME280;42456;49.956;20.004;2023-04-30T09:53:13;98593.73;;;16.00;59.51
56568;BME280;42456;49.956;20.004;2023-04-30T10:06:54;98577.60;;;16.34;57.89
56568;BME280;42456;49.956;20.004;2023-04-30T10:10:03;98584.13;;;16.30;57.80
56568;BME280;42456;49.956;20.004;2023-04-30T10:18:58;98566.47;;;16.36;56.16
56568;BME280;42456;49.956;20.004;2023-04-30T10:21:29;98575.02;;;16.35;53.36
56568;BME280;42456;49.956;20.004;2023-04-30T10:24:13;98569.02;;;16.27;55.45
56568;BME280;42456;49.956;20.004;2023-04-30T10:26:42;98562.14;;;16.24;55.34
56568;BME280;42456;49.956;20.004;2023-04-30T10:29:12;98563.79;;;16.17;55.08
56568;BME280;42456;49.956;20.004;2023-04-30T10:31:45;98564.70;;;16.08;53.84
56568;BME280;42456;49.956;20.004;2023-04-30T10:34:25;98565.90;;;16.07;54.11
56568;BME280;42456;49.956;20.004;2023-04-30T10:39:48;98572.35;;;16.31;53.90
56568;BME280;42456;49.956;20.004;2023-04-30T10:42:21;98564.45;;;16.46;54.20
56568;BME280;42456;49.956;20.004;2023-04-30T10:44:49;98562.23;;;16.60;54.07
56568;BME280;42456;49.956;20.004;2023-04-30T10:47:16;98560.56;;;16.70;52.52
56568;BME280;42456;49.956;20.004;2023-04-30T10:49:46;98559.22;;;16.69;51.34
56568;BME280;42456;49.956;20.004;2023-04-30T10:52:26;98558.55;;;16.70;51.58
56568;BME280;42456;49.956;20.004;2023-04-30T10:55:15;98557.68;;;16.61;51.67
56568;BME280;42456;49.956;20.004;2023-04-30T10:58:49;98560.70;;;16.57;52.37
56568;BME280;42456;49.956;20.004;2023-04-30T11:02:46;98555.45;;;16.62;51.94
56568;BME280;42456;49.956;20.004;2023-04-30T11:10:10;98553.05;;;16.94;52.48
56568;BME280;42456;49.956;20.004;2023-04-30T11:20:49;98550.81;;;16.72;49.97
56568;BME280;42456;49.956;20.004;2023-04-30T11:23:27;98551.63;;;16.45;49.03
56568;BME280;42456;49.956;20.004;2023-04-30T11:26:06;98547.48;;;16.20;49.65
56568;BME280;42456;49.956;20.004;2023-04-30T11:28:33;98552.70;;;16.09;48.89
56568;BME280;42456;49.956;20.004;2023-04-30T11:31:01;98545.76;;;16.00;48.62
56568;BME280;42456;49.956;20.004;2023-04-30T11:33:30;98547.02;;;15.97;49.40
56568;BME280;42456;49.956;20.004;2023-04-30T11:35:58;98549.05;;;16.02;50.08
56568;BME280;42456;49.956;20.004;2023-04-30T11:38:30;98550.23;;;15.98;49.64
56568;BME280;42456;49.956;20.004;2023-04-30T11:41:00;98552.59;;;16.00;49.38
56568;BME280;42456;49.956;20.004;2023-04-30T11:43:29;98554.39;;;16.05;48.82
56568;BME280;42456;49.956;20.004;2023-04-30T11:46:10;98549.02;;;16.19;49.33
56568;BME280;42456;49.956;20.004;2023-04-30T11:48:43;98550.12;;;16.32;48.85
56568;BME280;42456;49.956;20.004;2023-04-30T11:51:20;98549.82;;;16.36;46.42
56568;BME280;42456;49.956;20.004;2023-04-30T11:53:49;98546.23;;;16.35;46.33
56568;BME280;42456;49.956;20.004;2023-04-30T11:58:50;98550.86;;;16.45;47.77
56568;BME280;42456;49.956;20.004;2023-04-30T12:01:20;98550.96;;;16.58;48.51
56568;BME280;42456;49.956;20.004;2023-04-30T12:03:49;98550.81;;;16.67;48.26
56568;BME280;42456;49.956;20.004;2023-04-30T12:06:21;98552.00;;;16.69;47.37
56568;BME280;42456;49.956;20.004;2023-04-30T12:08:53;98549.79;;;16.58;45.90
56568;BME280;42456;49.956;20.004;2023-04-30T12:11:28;98554.92;;;16.39;45.70
56568;BME280;42456;49.956;20.004;2023-04-30T12:14:01;98552.64;;;16.30;46.09
56568;BME280;42456;49.956;20.004;2023-04-30T12:16:40;98553.20;;;16.35;46.70
56568;BME280;42456;49.956;20.004;2023-04-30T12:19:11;98549.33;;;16.45;46.36
56568;BME280;42456;49.956;20.004;2023-04-30T12:21:38;98551.55;;;16.52;46.51
56568;BME280;42456;49.956;20.004;2023-04-30T12:24:06;98543.46;;;16.60;46.84
56568;BME280;42456;49.956;20.004;2023-04-30T12:26:35;98544.70;;;16.68;46.89
56568;BME280;42456;49.956;20.004;2023-04-30T12:29:07;98544.85;;;16.77;45.85
56568;BME280;42456;49.956;20.004;2023-04-30T12:31:35;98547.58;;;16.83;45.98
56568;BME280;42456;49.956;20.004;2023-04-30T12:34:05;98545.69;;;16.85;45.43
56568;BME280;42456;49.956;20.004;2023-04-30T12:36:33;98537.41;;;16.92;46.35
56568;BME280;42456;49.956;20.004;2023-04-30T12:39:06;98537.47;;;17.00;47.07
56568;BME280;42456;49.956;20.004;2023-04-30T12:41:41;98532.78;;;17.03;46.64
56568;BME280;42456;49.956;20.004;2023-04-30T12:44:22;98529.22;;;17.04;45.61
56568;BME280;42456;49.956;20.004;2023-04-30T12:46:53;98530.91;;;16.98;45.39
56568;BME280;42456;49.956;20.004;2023-04-30T12:49:32;98532.75;;;16.92;43.95
56568;BME280;42456;49.956;20.004;2023-04-30T12:52:13;98533.02;;;16.79;44.32
56568;BME280;42456;49.956;20.004;2023-04-30T12:54:42;98530.00;;;16.66;44.67
56568;BME280;42456;49.956;20.004;2023-04-30T12:57:10;98530.21;;;16.61;45.17
56568;BME280;42456;49.956;20.004;2023-04-30T12:59:54;98524.98;;;16.64;45.03
56568;BME280;42456;49.956;20.004;2023-04-30T13:02:24;98520.40;;;16.68;45.24
56568;BME280;42456;49.956;20.004;2023-04-30T13:04:52;98521.05;;;16.74;46.15
56568;BME280;42456;49.956;20.004;2023-04-30T13:07:19;98517.48;;;16.79;46.56
56568;BME280;42456;49.956;20.004;2023-04-30T13:09:46;98522.31;;;16.80;44.86
56568;BME280;42456;49.956;20.004;2023-04-30T13:12:13;98518.95;;;16.78;44.64
56568;BME280;42456;49.956;20.004;2023-04-30T13:14:40;98520.20;;;16.78;44.48
56568;BME280;42456;49.956;20.004;2023-04-30T13:17:07;98522.45;;;16.83;45.70
56568;BME280;42456;49.956;20.004;2023-04-30T13:19:36;98521.36;;;16.88;45.24
56568;BME280;42456;49.956;20.004;2023-04-30T13:22:03;98521.04;;;16.92;45.22
56568;BME280;42456;49.956;20.004;2023-04-30T13:24:30;98516.05;;;16.95;45.42
56568;BME280;42456;49.956;20.004;2023-04-30T13:26:57;98513.23;;;16.95;45.11
56568;BME280;42456;49.956;20.004;2023-04-30T13:29:25;98516.92;;;16.92;44.33
56568;BME280;42456;49.956;20.004;2023-04-30T13:31:52;98518.11;;;16.89;44.44
56568;BME280;42456;49.956;20.004;2023-04-30T13:34:19;98516.07;;;16.83;43.13
56568;BME280;42456;49.956;20.004;2023-04-30T13:36:46;98512.14;;;16.74;42.92
56568;BME280;42456;49.956;20.004;2023-04-30T13:39:14;98511.10;;;16.73;43.31
56568;BME280;42456;49.956;20.004;2023-04-30T13:41:41;98518.86;;;16.73;43.07
56568;BME280;42456;49.956;20.004;2023-04-30T13:44:08;98518.29;;;16.71;43.57
56568;BME280;42456;49.956;20.004;2023-04-30T13:46:35;98521.66;;;16.74;43.98
56568;BME280;42456;49.956;20.004;2023-04-30T13:49:02;98518.49;;;16.70;42.48
56568;BME280;42456;49.956;20.004;2023-04-30T13:51:29;98512.73;;;16.64;43.53
56568;BME280;42456;49.956;20.004;2023-04-30T13:53:56;98508.16;;;16.64;43.28
56568;BME280;42456;49.956;20.004;2023-04-30T13:56:23;98504.88;;;16.68;43.75
56568;BME280;42456;49.956;20.004;2023-04-30T13:58:51;98509.77;;;16.72;44.03
56568;BME280;42456;49.956;20.004;2023-04-30T14:01:18;98505.79;;;16.75;44.03
56568;BME280;42456;49.956;20.004;2023-04-30T14:03:45;98509.85;;;16.77;43.71
56568;BME280;42456;49.956;20.004;2023-04-30T14:06:13;98514.32;;;16.75;44.24
56568;BME280;42456;49.956;20.004;2023-04-30T14:08:40;98516.33;;;16.75;44.42
56568;BME280;42456;49.956;20.004;2023-04-30T14:11:07;98517.38;;;16.72;43.09
56568;BME280;42456;49.956;20.004;2023-04-30T14:13:34;98516.84;;;16.60;44.24
56568;BME280;42456;49.956;20.004;2023-04-30T14:16:01;98514.15;;;16.52;43.15
56568;BME280;42456;49.956;20.004;2023-04-30T14:18:28;98508.92;;;16.39;42.16
56568;BME280;42456;49.956;20.004;2023-04-30T14:20:55;98511.36;;;16.28;41.99
56568;BME280;42456;49.956;20.004;2023-04-30T14:23:22;98512.86;;;16.18;42.25
56568;BME280;42456;49.956;20.004;2023-04-30T14:25:49;98505.59;;;16.10;42.06
56568;BME280;42456;49.956;20.004;2023-04-30T14:28:16;98505.39;;;16.04;43.34
56568;BME280;42456;49.956;20.004;2023-04-30T14:30:43;98508.78;;;16.08;44.31
56568;BME280;42456;49.956;20.004;2023-04-30T14:33:10;98512.06;;;16.12;43.45
56568;BME280;42456;49.956;20.004;2023-04-30T14:35:38;98513.98;;;16.12;43.37
56568;BME280;42456;49.956;20.004;2023-04-30T14:38:07;98513.89;;;16.11;43.59
56568;BME280;42456;49.956;20.004;2023-04-30T14:40:34;98515.09;;;16.09;43.94
56568;BME280;42456;49.956;20.004;2023-04-30T14:43:01;98518.18;;;16.09;43.60
56568;BME280;42456;49.956;20.004;2023-04-30T14:45:28;98518.95;;;16.08;43.37
56568;BME280;42456;49.956;20.004;2023-04-30T14:47:55;98516.91;;;16.11;43.82
56568;BME280;42456;49.956;20.004;2023-04-30T14:50:22;98513.80;;;16.10;43.37
56568;BME280;42456;49.956;20.004;2023-04-30T14:52:50;98512.60;;;16.04;43.29
56568;BME280;42456;49.956;20.004;2023-04-30T14:55:17;98518.88;;;16.04;44.14
56568;BME280;42456;49.956;20.004;2023-04-30T14:57:44;98516.92;;;16.03;43.56
56568;BME280;42456;49.956;20.004;2023-04-30T15:00:11;98525.80;;;16.02;43.49
56568;BME280;42456;49.956;20.004;2023-04-30T15:02:38;98526.88;;;15.94;42.98
56568;BME280;42456;49.956;20.004;2023-04-30T15:05:06;98524.97;;;15.80;42.73
56568;BME280;42456;49.956;20.004;2023-04-30T15:07:34;98523.98;;;15.66;43.54
56568;BME280;42456;49.956;20.004;2023-04-30T15:10:02;98524.66;;;15.61;44.31
56568;BME280;42456;49.956;20.004;2023-04-30T15:12:30;98521.86;;;15.58;44.78
56568;BME280;42456;49.956;20.004;2023-04-30T15:14:57;98522.61;;;15.56;45.52
56568;BME280;42456;49.956;20.004;2023-04-30T15:17:24;98525.27;;;15.54;45.02
56568;BME280;42456;49.956;20.004;2023-04-30T15:19:51;98520.83;;;15.46;44.99
56568;BME280;42456;49.956;20.004;2023-04-30T15:22:20;98519.05;;;15.39;46.08
56568;BME280;42456;49.956;20.004;2023-04-30T15:24:47;98521.34;;;15.35;45.95
56568;BME280;42456;49.956;20.004;2023-04-30T15:27:14;98522.16;;;15.27;45.74
56568;BME280;42456;49.956;20.004;2023-04-30T15:29:41;98530.86;;;15.21;45.83
56568;BME280;42456;49.956;20.004;2023-04-30T15:32:08;98526.05;;;15.15;45.67
56568;BME280;42456;49.956;20.004;2023-04-30T15:34:35;98521.48;;;15.11;46.20
56568;BME280;42456;49.956;20.004;2023-04-30T15:37:02;98522.00;;;15.10;46.46
56568;BME280;42456;49.956;20.004;2023-04-30T15:39:29;98526.86;;;15.09;46.03
56568;BME280;42456;49.956;20.004;2023-04-30T15:41:56;98527.25;;;15.02;45.75
56568;BME280;42456;49.956;20.004;2023-04-30T15:44:23;98526.46;;;14.96;45.35
56568;BME280;42456;49.956;20.004;2023-04-30T15:46:50;98524.70;;;14.90;45.18
56568;BME280;42456;49.956;20.004;2023-04-30T15:49:17;98524.23;;;14.86;45.47
56568;BME280;42456;49.956;20.004;2023-04-30T15:51:44;98532.39;;;14.82;45.38
56568;BME280;42456;49.956;20.004;2023-04-30T15:54:11;98530.58;;;14.74;45.27
56568;BME280;42456;49.956;20.004;2023-04-30T15:56:39;98534.44;;;14.65;45.71
56568;BME280;42456;49.956;20.004;2023-04-30T15:59:06;98537.52;;;14.56;45.85
56568;BME280;42456;49.956;20.004;2023-04-30T16:01:33;98537.12;;;14.47;45.85
56568;BME280;42456;49.956;20.004;2023-04-30T16:04:00;98543.75;;;14.40;46.02
56568;BME280;42456;49.956;20.004;2023-04-30T16:06:28;98537.70;;;14.33;46.05
56568;BME280;42456;49.956;20.004;2023-04-30T16:08:57;98538.73;;;14.26;46.09
56568;BME280;42456;49.956;20.004;2023-04-30T16:11:24;98538.63;;;14.17;46.22
56568;BME280;42456;49.956;20.004;2023-04-30T16:13:51;98538.50;;;14.10;46.03
56568;BME280;42456;49.956;20.004;2023-04-30T16:16:19;98539.31;;;14.03;45.86
56568;BME280;42456;49.956;20.004;2023-04-30T16:18:46;98536.31;;;13.98;46.12
56568;BME280;42456;49.956;20.004;2023-04-30T16:21:13;98541.33;;;13.95;46.08
56568;BME280;42456;49.956;20.004;2023-04-30T16:23:40;98538.17;;;13.90;45.37
56568;BME280;42456;49.956;20.004;2023-04-30T16:26:07;98542.98;;;13.85;45.70
56568;BME280;42456;49.956;20.004;2023-04-30T16:28:34;98543.24;;;13.81;45.94
56568;BME280;42456;49.956;20.004;2023-04-30T16:31:01;98547.98;;;13.76;45.81
56568;BME280;42456;49.956;20.004;2023-04-30T16:33:29;98549.79;;;13.70;46.08